Checkflüge: IR Check Flight SEP

Weitere Informationen folgen in Kürze ...

 

 

Flugwetter Augsburg

[source: ADDS]
METAR
EDMA 201050Z VRB02KT CAVOK 19/12 Q1015 =
TAF EDMA 200800Z 2009/2018 VRB02KT CAVOK BECMG 2010/2012 05005KT BECMG 2017/2018 VRB03KT
TAF
TAF EDMA 200800Z 2009/2018 VRB02KT CAVOK BECMG 2010/2012 05005KT BECMG 2017/2018 VRB03KT =
Cookies erleichtern die Bereitstellung unserer Dienste. Mit der Nutzung unserer Dienste erklären Sie sich damit einverstanden, dass wir Cookies verwenden.
Weitere Informationen Ok